GRZ583 Details

Departure: (PAGA)
Arrival: Fairbanks International Airport (PAFA)
Route: GAL J122 FAI


Current Weather Information
PAGA 250456Z AUTO 00000KT 10SM CLR 16/03 A2980 RMK AO2 SLP091 T01560028
PAFA 250453Z 26003KT 10SM FEW050 FEW180 13/04 A2977 RMK AO2 SLP087 T01280044